createdAt,value
2018-10-07T00:00:06.154Z,928.16
2018-10-07T00:01:37.723Z,928.10
2018-10-07T00:03:09.294Z,928.10
2018-10-07T00:04:40.863Z,928.11
2018-10-07T00:06:12.435Z,928.17
2018-10-07T00:07:44.206Z,928.19
2018-10-07T00:09:15.673Z,928.15
2018-10-07T00:10:47.142Z,928.12
2018-10-07T00:12:18.717Z,928.29
2018-10-07T00:13:50.276Z,928.36
2018-10-07T00:15:22.397Z,928.42
2018-10-07T00:18:24.987Z,928.42
2018-10-07T00:19:56.557Z,928.36
2018-10-07T00:21:28.427Z,928.45
2018-10-07T00:22:59.899Z,928.38
2018-10-07T00:24:31.265Z,928.47
2018-10-07T00:26:02.835Z,928.44
2018-10-07T00:27:35.155Z,928.41
2018-10-07T00:29:05.980Z,928.43
2018-10-07T00:30:37.545Z,928.35
2018-10-07T00:32:09.118Z,928.26
2018-10-07T00:33:41.312Z,928.32
2018-10-07T00:35:12.253Z,928.38
2018-10-07T00:36:43.823Z,928.33
2018-10-07T00:38:15.394Z,928.34
2018-10-07T00:39:46.963Z,928.27
2018-10-07T00:41:18.536Z,928.11
2018-10-07T00:42:50.105Z,928.22
2018-10-07T00:44:21.673Z,928.21
2018-10-07T00:45:53.244Z,928.06
2018-10-07T00:47:24.814Z,928.19
2018-10-07T00:48:56.385Z,927.99
2018-10-07T00:50:27.954Z,928.08
2018-10-07T00:51:59.626Z,928.13
2018-10-07T00:53:31.094Z,928.11
2018-10-07T00:55:02.663Z,928.17
2018-10-07T00:56:34.234Z,928.20
2018-10-07T00:58:05.901Z,928.24
2018-10-07T00:59:37.371Z,928.16
2018-10-07T01:01:08.940Z,928.23
2018-10-07T01:02:40.512Z,928.18
2018-10-07T01:04:12.082Z,928.10
2018-10-07T01:05:43.650Z,928.14
2018-10-07T01:07:15.224Z,928.13
2018-10-07T01:08:46.791Z,928.15
2018-10-07T01:10:18.460Z,928.17
2018-10-07T01:11:49.929Z,928.12
2018-10-07T01:13:21.526Z,928.18
2018-10-07T01:14:53.070Z,928.23
2018-10-07T01:16:24.639Z,928.25
2018-10-07T01:17:56.208Z,928.26
2018-10-07T01:19:27.779Z,928.25
2018-10-07T01:20:59.349Z,928.23
2018-10-07T01:22:31.219Z,928.16
2018-10-07T01:24:02.488Z,928.14
2018-10-07T01:25:34.057Z,928.05
2018-10-07T01:27:05.633Z,928.14
2018-10-07T01:28:37.498Z,928.07
2018-10-07T01:30:08.768Z,928.16
2018-10-07T01:31:40.337Z,928.15
2018-10-07T01:33:11.907Z,928.14
2018-10-07T01:34:43.476Z,928.17
2018-10-07T01:36:15.046Z,928.14
2018-10-07T01:37:46.625Z,928.18
2018-10-07T01:39:18.185Z,928.20
2018-10-07T01:40:49.755Z,928.24
2018-10-07T01:42:21.325Z,928.21
2018-10-07T01:43:52.896Z,928.15
2018-10-07T01:45:24.464Z,928.19
2018-10-07T01:46:56.286Z,928.02
2018-10-07T01:48:27.604Z,928.07
2018-10-07T01:49:59.193Z,928.07
2018-10-07T01:51:30.747Z,928.13
2018-10-07T01:53:02.313Z,928.13
2018-10-07T01:54:33.885Z,928.10
2018-10-07T01:56:05.457Z,928.17
2018-10-07T01:57:37.022Z,928.15
2018-10-07T01:59:08.695Z,928.19
2018-10-07T02:00:40.163Z,928.12
2018-10-07T02:02:11.733Z,928.10
2018-10-07T02:03:43.302Z,928.18
2018-10-07T02:05:15.029Z,928.16
2018-10-07T02:06:46.442Z,928.11
2018-10-07T02:08:18.013Z,928.03
2018-10-07T02:09:49.584Z,928.10
2018-10-07T02:11:21.151Z,928.08
2018-10-07T02:12:52.721Z,928.10
2018-10-07T02:14:24.290Z,928.10
2018-10-07T02:15:56.212Z,928.08
2018-10-07T02:17:27.430Z,928.08
2018-10-07T02:18:59.591Z,928.04
2018-10-07T02:20:30.573Z,928.03
2018-10-07T02:22:02.139Z,928.01
2018-10-07T02:23:34.109Z,928.02
2018-10-07T02:25:05.278Z,928.00
2018-10-07T02:26:36.848Z,927.98
2018-10-07T02:28:09.020Z,927.92
2018-10-07T02:29:39.988Z,927.99
2018-10-07T02:31:11.558Z,928.05
2018-10-07T02:32:43.128Z,928.06
2018-10-07T02:34:14.697Z,928.05
2018-10-07T02:35:46.268Z,928.07
2018-10-07T02:37:17.851Z,928.16
2018-10-07T02:38:49.413Z,928.14
2018-10-07T02:40:20.978Z,928.19
2018-10-07T02:41:52.697Z,928.21
2018-10-07T02:43:24.116Z,928.18
2018-10-07T02:44:55.692Z,928.18
2018-10-07T02:46:27.257Z,928.16
2018-10-07T02:47:58.828Z,928.13
2018-10-07T02:49:30.397Z,927.99
2018-10-07T02:51:01.968Z,928.00
2018-10-07T02:52:33.537Z,928.04
2018-10-07T02:54:05.410Z,928.03
2018-10-07T02:55:36.677Z,927.97
2018-10-07T02:57:08.247Z,927.98
2018-10-07T02:58:39.816Z,927.92
2018-10-07T03:00:11.588Z,927.86
2018-10-07T03:01:42.958Z,927.87
2018-10-07T03:03:14.526Z,927.79
2018-10-07T03:04:46.150Z,927.72
2018-10-07T03:06:17.666Z,927.71
2018-10-07T03:07:49.237Z,927.69
2018-10-07T03:09:20.805Z,927.65
2018-10-07T03:10:52.377Z,927.64
2018-10-07T03:12:24.046Z,927.67
2018-10-07T03:13:55.517Z,927.56
2018-10-07T03:15:27.095Z,927.59
2018-10-07T03:16:58.858Z,927.57
2018-10-07T03:18:30.327Z,927.49
2018-10-07T03:20:01.795Z,927.47
2018-10-07T03:21:33.365Z,927.43
2018-10-07T03:23:04.935Z,927.43
2018-10-07T03:24:36.505Z,927.39
2018-10-07T03:26:08.075Z,927.38
2018-10-07T03:27:39.645Z,927.34
2018-10-07T03:29:11.216Z,927.40
2018-10-07T03:30:42.786Z,927.25
2018-10-07T03:32:14.363Z,927.31
2018-10-07T03:33:46.229Z,927.35
2018-10-07T03:35:17.496Z,927.36
2018-10-07T03:36:49.170Z,927.35
2018-10-07T03:38:20.634Z,927.32
2018-10-07T03:39:52.204Z,927.29
2018-10-07T03:41:23.788Z,927.32
2018-10-07T03:42:55.648Z,927.31
2018-10-07T03:44:26.915Z,927.31
2018-10-07T03:45:58.485Z,927.30
2018-10-07T03:47:30.056Z,927.32
2018-10-07T03:49:01.626Z,927.37
2018-10-07T03:50:33.196Z,927.38
2018-10-07T03:52:04.764Z,927.36
2018-10-07T03:53:36.338Z,927.42
2018-10-07T03:55:08.307Z,927.41
2018-10-07T03:56:39.475Z,927.39
2018-10-07T03:58:11.045Z,927.39
2018-10-07T03:59:42.616Z,927.39
2018-10-07T04:01:14.285Z,927.37
2018-10-07T04:02:45.756Z,927.39
2018-10-07T04:04:17.324Z,927.37
2018-10-07T04:05:48.896Z,927.34
2018-10-07T04:08:52.541Z,927.33
2018-10-07T04:10:23.606Z,927.29
2018-10-07T04:11:55.179Z,927.26
2018-10-07T04:13:26.746Z,927.24
2018-10-07T04:14:58.617Z,927.26
2018-10-07T04:16:29.886Z,927.26
2018-10-07T04:18:01.457Z,927.12
2018-10-07T04:19:33.027Z,927.19
2018-10-07T04:21:04.594Z,927.18
2018-10-07T04:22:36.166Z,927.22
2018-10-07T04:24:07.737Z,927.24
2018-10-07T04:25:39.305Z,927.14
2018-10-07T04:27:10.878Z,927.16
2018-10-07T04:28:42.444Z,927.10
2018-10-07T04:30:14.015Z,927.13
2018-10-07T04:31:46.113Z,927.11
2018-10-07T04:33:17.255Z,926.99
2018-10-07T04:34:48.724Z,927.05
2018-10-07T04:36:20.295Z,927.12
2018-10-07T04:37:51.865Z,927.07
2018-10-07T04:39:23.436Z,927.03
2018-10-07T04:40:55.004Z,927.01
2018-10-07T04:42:26.574Z,926.98
2018-10-07T04:43:58.145Z,927.01
2018-10-07T04:45:29.813Z,927.00
2018-10-07T04:47:01.283Z,926.99
2018-10-07T04:48:32.853Z,926.99
2018-10-07T04:50:04.424Z,926.87
2018-10-07T04:51:36.094Z,926.90
2018-10-07T04:53:07.564Z,926.90
2018-10-07T04:54:39.133Z,926.89
2018-10-07T04:56:10.703Z,926.93
2018-10-07T04:57:42.272Z,926.95
2018-10-07T04:59:13.843Z,926.94
2018-10-07T05:00:45.412Z,926.90
2018-10-07T05:02:16.984Z,926.80
2018-10-07T05:03:48.558Z,926.83
2018-10-07T05:05:20.123Z,926.83
2018-10-07T05:06:51.693Z,926.78
2018-10-07T05:08:23.263Z,926.82
2018-10-07T05:09:54.933Z,926.78
2018-10-07T05:11:26.401Z,926.75
2018-10-07T05:12:58.276Z,926.69
2018-10-07T05:14:29.540Z,926.66
2018-10-07T05:16:01.111Z,926.66
2018-10-07T05:17:32.679Z,926.62
2018-10-07T05:19:04.253Z,926.60
2018-10-07T05:20:35.820Z,926.61
2018-10-07T05:22:07.398Z,926.60
2018-10-07T05:25:10.526Z,926.49
2018-10-07T05:26:42.096Z,926.47
2018-10-07T05:28:13.765Z,926.44
2018-10-07T05:29:45.234Z,926.45
2018-10-07T05:31:16.803Z,926.50
2018-10-07T05:32:48.373Z,926.49
2018-10-07T05:34:20.044Z,926.49
2018-10-07T05:35:51.514Z,926.46
2018-10-07T05:37:23.082Z,926.60
2018-10-07T05:40:26.219Z,926.51
2018-10-07T05:41:57.789Z,926.46
2018-10-07T05:43:29.361Z,926.44
2018-10-07T05:45:00.931Z,926.30
2018-10-07T05:46:33.149Z,926.28
2018-10-07T05:48:04.067Z,926.27
2018-10-07T05:49:35.640Z,926.16
2018-10-07T05:51:07.206Z,926.10
2018-10-07T05:52:38.775Z,926.07
2018-10-07T05:54:10.345Z,926.04
2018-10-07T05:55:41.936Z,925.99
2018-10-07T05:57:13.484Z,926.07
2018-10-07T05:58:45.354Z,926.01
2018-10-07T06:00:16.624Z,925.96
2018-10-07T06:01:48.269Z,925.95
2018-10-07T06:03:19.761Z,925.96
2018-10-07T06:06:23.003Z,926.10
2018-10-07T06:07:54.472Z,926.13
2018-10-07T06:09:26.039Z,926.15
2018-10-07T06:10:57.913Z,926.06
2018-10-07T06:12:29.178Z,926.05
2018-10-07T06:14:00.748Z,926.08
2018-10-07T06:15:32.318Z,926.06
2018-10-07T06:17:03.887Z,926.11
2018-10-07T06:18:35.457Z,926.10
2018-10-07T06:20:07.027Z,926.04
2018-10-07T06:21:38.604Z,925.98
2018-10-07T06:23:10.165Z,925.89
2018-10-07T06:24:41.835Z,925.94
2018-10-07T06:26:13.308Z,925.97
2018-10-07T06:27:44.874Z,925.96
2018-10-07T06:29:16.445Z,925.86
2018-10-07T06:30:48.015Z,925.86
2018-10-07T06:32:19.583Z,925.81
2018-10-07T06:33:51.156Z,925.84
2018-10-07T06:35:22.723Z,925.77
2018-10-07T06:36:54.393Z,925.83
2018-10-07T06:38:25.868Z,925.82
2018-10-07T06:39:57.470Z,925.84
2018-10-07T06:41:29.002Z,925.86
2018-10-07T06:43:00.673Z,925.80
2018-10-07T06:44:32.141Z,925.81
2018-10-07T06:46:03.711Z,925.83
2018-10-07T06:47:35.282Z,925.80
2018-10-07T06:49:06.851Z,925.82
2018-10-07T06:50:38.423Z,925.86
2018-10-07T06:52:09.990Z,925.91
2018-10-07T06:53:42.695Z,925.82
2018-10-07T06:55:13.130Z,925.78
2018-10-07T06:56:44.700Z,925.74
2018-10-07T06:58:16.270Z,925.80
2018-10-07T06:59:47.913Z,925.82
2018-10-07T07:01:19.813Z,925.82
2018-10-07T07:02:50.980Z,925.85
2018-10-07T07:04:22.550Z,925.88
2018-10-07T07:05:54.648Z,925.85
2018-10-07T07:07:25.790Z,925.88
2018-10-07T07:08:57.263Z,925.85
2018-10-07T07:10:28.830Z,925.90
2018-10-07T07:12:00.399Z,925.86
2018-10-07T07:13:31.969Z,925.85
2018-10-07T07:15:03.540Z,925.85
2018-10-07T07:16:35.111Z,925.91
2018-10-07T07:18:06.679Z,925.88
2018-10-07T07:19:38.355Z,925.91
2018-10-07T07:21:09.817Z,925.99
2018-10-07T07:22:41.387Z,926.00
2018-10-07T07:24:12.957Z,926.05
2018-10-07T07:25:45.056Z,926.04
2018-10-07T07:27:16.099Z,925.96
2018-10-07T07:28:47.669Z,925.95
2018-10-07T07:30:19.240Z,925.93
2018-10-07T07:31:50.813Z,925.85
2018-10-07T07:33:22.388Z,925.84
2018-10-07T07:34:53.948Z,925.76
2018-10-07T07:36:25.517Z,925.81
2018-10-07T07:37:57.291Z,925.76
2018-10-07T07:39:28.657Z,925.74
2018-10-07T07:41:00.227Z,925.82
2018-10-07T07:42:31.884Z,925.85
2018-10-07T07:44:03.367Z,925.78
2018-10-07T07:45:34.936Z,925.77
2018-10-07T07:47:06.507Z,925.79
2018-10-07T07:48:38.082Z,925.81
2018-10-07T07:50:09.645Z,925.87
2018-10-07T07:51:41.522Z,925.89
2018-10-07T07:53:12.785Z,925.90
2018-10-07T07:54:44.356Z,925.87
2018-10-07T07:56:16.025Z,925.86
2018-10-07T07:57:47.495Z,925.83
2018-10-07T07:59:19.065Z,925.83
2018-10-07T08:00:50.938Z,925.85
2018-10-07T08:02:22.206Z,925.86
2018-10-07T08:03:53.775Z,925.80
2018-10-07T08:05:25.345Z,925.83
2018-10-07T08:06:56.914Z,925.90
2018-10-07T08:08:28.586Z,925.90
2018-10-07T08:10:00.056Z,926.06
2018-10-07T08:11:31.628Z,926.11
2018-10-07T08:13:03.198Z,926.12
2018-10-07T08:14:34.864Z,926.12
2018-10-07T08:16:06.336Z,926.13
2018-10-07T08:17:37.914Z,926.14
2018-10-07T08:19:09.473Z,926.20
2018-10-07T08:20:41.043Z,926.14
2018-10-07T08:22:12.613Z,926.22
2018-10-07T08:23:44.238Z,926.24
2018-10-07T08:25:15.753Z,926.26
2018-10-07T08:26:47.323Z,926.28
2018-10-07T08:28:18.893Z,926.27
2018-10-07T08:29:50.469Z,926.29
2018-10-07T08:31:22.038Z,926.29
2018-10-07T08:32:53.905Z,926.29
2018-10-07T08:34:25.191Z,926.27
2018-10-07T08:35:56.744Z,926.26
2018-10-07T08:37:28.312Z,926.25
2018-10-07T08:39:00.193Z,926.28
2018-10-07T08:40:31.453Z,926.24
2018-10-07T08:42:03.028Z,926.24
2018-10-07T08:43:34.593Z,926.25
2018-10-07T08:45:06.161Z,926.30
2018-10-07T08:46:37.734Z,926.36
2018-10-07T08:48:09.302Z,926.40
2018-10-07T08:49:40.911Z,926.42
2018-10-07T08:51:12.543Z,926.45
2018-10-07T08:52:44.012Z,926.46
2018-10-07T08:54:15.584Z,926.50
2018-10-07T08:57:18.723Z,926.47
2018-10-07T08:58:50.497Z,926.47
2018-10-07T09:00:22.373Z,926.46
2018-10-07T09:01:53.443Z,926.52
2018-10-07T09:03:25.302Z,926.55
2018-10-07T09:06:28.142Z,926.61
2018-10-07T09:07:59.711Z,926.58
2018-10-07T09:09:31.383Z,926.61
2018-10-07T09:11:02.895Z,926.61
2018-10-07T09:12:34.628Z,926.72
2018-10-07T09:14:06.503Z,926.77
2018-10-07T09:15:37.563Z,926.83
2018-10-07T09:17:09.133Z,926.83
2018-10-07T09:18:41.263Z,926.87
2018-10-07T09:20:12.650Z,926.83
2018-10-07T09:21:43.844Z,926.84
2018-10-07T09:23:15.816Z,926.84
2018-10-07T09:24:46.982Z,926.90
2018-10-07T09:26:18.560Z,926.90
2018-10-07T09:27:50.426Z,926.89
2018-10-07T09:29:21.897Z,926.91
2018-10-07T09:30:53.265Z,926.90
2018-10-07T09:32:24.856Z,926.91
2018-10-07T09:35:28.279Z,926.91
2018-10-07T09:36:59.546Z,926.88
2018-10-07T09:38:31.118Z,926.96
2018-10-07T09:41:34.561Z,926.88
2018-10-07T09:46:08.973Z,926.88
2018-10-07T09:47:41.543Z,926.90
2018-10-07T09:49:12.111Z,926.99
2018-10-07T09:52:15.325Z,927.10
2018-10-07T09:53:46.820Z,927.21
2018-10-07T09:56:49.961Z,927.27
2018-10-07T09:58:21.540Z,927.32
2018-10-07T09:59:53.106Z,927.35
2018-10-07T10:01:24.729Z,927.34
2018-10-07T10:02:56.246Z,927.44
2018-10-07T10:06:00.400Z,927.48
2018-10-07T10:09:02.730Z,927.54
2018-10-07T10:10:34.099Z,927.57
2018-10-07T10:12:05.770Z,927.58
2018-10-07T10:15:08.813Z,927.60
2018-10-07T10:16:40.686Z,927.67
2018-10-07T10:18:12.160Z,927.69
2018-10-07T10:22:46.669Z,927.78
2018-10-07T10:24:18.440Z,927.81
2018-10-07T10:25:50.340Z,927.87
2018-10-07T10:27:21.385Z,927.90
2018-10-07T10:28:53.157Z,927.90
2018-10-07T10:34:59.443Z,927.99
2018-10-07T10:36:30.816Z,928.04
2018-10-07T10:38:02.389Z,928.04
2018-10-07T10:39:34.023Z,927.97
2018-10-07T10:41:05.833Z,927.98
2018-10-07T10:44:08.674Z,928.07
2018-10-07T10:45:40.454Z,928.07
2018-10-07T10:47:11.917Z,928.07
2018-10-07T10:48:43.391Z,928.08
2018-10-07T10:50:15.164Z,928.17
2018-10-07T10:51:46.565Z,928.13
2018-10-07T10:54:49.677Z,928.15
2018-10-07T10:56:21.251Z,928.12
2018-10-07T10:57:53.127Z,928.12
2018-10-07T10:59:24.399Z,928.13
2018-10-07T11:02:27.640Z,928.21
2018-10-07T11:03:59.313Z,928.23
2018-10-07T11:05:30.682Z,928.29
2018-10-07T11:07:02.261Z,928.30
2018-10-07T11:08:33.828Z,928.31
2018-10-07T11:10:05.400Z,928.30
2018-10-07T11:11:36.973Z,928.30
2018-10-07T11:13:08.545Z,928.21
2018-10-07T11:14:40.323Z,928.22
2018-10-07T11:17:43.906Z,928.24
2018-10-07T11:19:14.834Z,928.19
2018-10-07T11:20:46.505Z,928.12
2018-10-07T11:22:17.977Z,928.15
2018-10-07T11:23:50.482Z,928.21
2018-10-07T11:26:53.631Z,928.20
2018-10-07T11:28:24.996Z,928.36
2018-10-07T11:29:55.838Z,928.37
2018-10-07T11:32:58.981Z,928.39
2018-10-07T11:34:30.554Z,928.39
2018-10-07T11:36:02.127Z,928.38
2018-10-07T11:37:34.226Z,928.36
2018-10-07T11:39:06.302Z,928.40
2018-10-07T11:40:36.888Z,928.36
2018-10-07T11:42:08.413Z,928.42
2018-10-07T11:46:44.062Z,928.36
2018-10-07T11:49:46.277Z,928.40
2018-10-07T11:51:17.847Z,928.41
2018-10-07T11:52:49.503Z,928.51
2018-10-07T11:54:21.189Z,928.53
2018-10-07T11:55:52.760Z,928.56
2018-10-07T11:57:24.130Z,928.59
2018-10-07T11:58:55.902Z,928.56
2018-10-07T12:01:59.150Z,928.61
2018-10-07T12:03:30.414Z,928.64
2018-10-07T12:05:01.986Z,928.67
2018-10-07T12:06:34.084Z,928.67
2018-10-07T12:11:09.202Z,928.85
2018-10-07T12:12:39.841Z,928.88
2018-10-07T12:15:42.985Z,929.07
2018-10-07T12:18:46.225Z,928.96
2018-10-07T12:20:17.902Z,928.81
2018-10-07T12:21:49.473Z,928.78
2018-10-07T12:23:20.840Z,928.77
2018-10-07T12:24:52.517Z,928.68
2018-10-07T12:26:23.984Z,928.64
2018-10-07T12:27:55.560Z,928.59
2018-10-07T12:29:27.331Z,928.57
2018-10-07T12:30:58.906Z,928.57
2018-10-07T12:32:30.271Z,928.53
2018-10-07T12:34:01.844Z,928.49
2018-10-07T12:37:05.693Z,928.71
2018-10-07T12:38:36.761Z,928.68
2018-10-07T12:40:08.335Z,928.66
2018-10-07T12:44:43.378Z,928.83
2018-10-07T12:46:14.420Z,928.87
2018-10-07T12:47:45.996Z,928.92
2018-10-07T12:49:17.580Z,928.91
2018-10-07T12:52:21.338Z,928.71
2018-10-07T12:53:52.522Z,928.74
2018-10-07T12:56:55.737Z,928.64
2018-10-07T12:58:27.003Z,928.72
2018-10-07T13:03:01.727Z,928.82
2018-10-07T13:04:33.296Z,928.87
2018-10-07T13:06:05.399Z,929.03
2018-10-07T13:10:39.693Z,928.93
2018-10-07T13:13:42.743Z,928.81
2018-10-07T13:15:14.620Z,928.79
2018-10-07T13:16:45.891Z,928.69
2018-10-07T13:18:17.466Z,928.72
2018-10-07T13:19:49.251Z,928.72
2018-10-07T13:21:20.616Z,928.77
2018-10-07T13:22:52.189Z,928.81
2018-10-07T13:24:23.764Z,928.59
2018-10-07T13:27:26.914Z,928.83
2018-10-07T13:28:58.891Z,928.79
2018-10-07T13:32:01.640Z,928.84
2018-10-07T13:33:33.245Z,928.87
2018-10-07T13:35:05.415Z,928.77
2018-10-07T13:36:36.362Z,928.78
2018-10-07T13:38:08.872Z,928.83
2018-10-07T13:39:39.515Z,928.84
2018-10-07T13:41:11.290Z,928.80
2018-10-07T13:44:14.239Z,928.82
2018-10-07T13:45:45.815Z,928.88
2018-10-07T13:47:17.490Z,928.82
2018-10-07T13:50:20.542Z,928.66
2018-10-07T13:51:52.320Z,928.54
2018-10-07T13:53:23.966Z,928.47
2018-10-07T13:57:58.423Z,928.55
2018-10-07T13:59:30.103Z,928.61
2018-10-07T14:02:33.155Z,928.82
2018-10-07T14:04:04.730Z,928.85
2018-10-07T14:05:36.407Z,928.83
2018-10-07T14:07:08.089Z,928.84
2018-10-07T14:08:39.460Z,929.16
2018-10-07T14:11:43.750Z,928.93
2018-10-07T14:16:17.552Z,928.80
2018-10-07T14:17:48.927Z,928.51
2018-10-07T14:19:20.709Z,928.52
2018-10-07T14:20:52.285Z,928.48
2018-10-07T14:23:55.986Z,928.45
2018-10-07T14:25:27.016Z,928.55
2018-10-07T14:30:01.952Z,928.44
2018-10-07T14:33:05.211Z,928.40
2018-10-07T14:34:36.277Z,928.42
2018-10-07T14:36:07.854Z,928.38
2018-10-07T14:39:11.050Z,928.28
2018-10-07T14:40:43.516Z,928.46
2018-10-07T14:42:14.260Z,928.45
2018-10-07T14:46:49.195Z,928.19
2018-10-07T14:48:20.469Z,928.12
2018-10-07T14:49:52.044Z,928.07
2018-10-07T14:51:23.622Z,928.02
2018-10-07T14:52:55.197Z,928.18
2018-10-07T14:54:26.775Z,928.22
2018-10-07T14:55:58.351Z,928.28
2018-10-07T14:57:30.139Z,928.26
2018-10-07T14:59:01.504Z,928.28
2018-10-07T15:00:33.181Z,928.50
2018-10-07T15:02:04.864Z,928.35
2018-10-07T15:03:36.236Z,928.47
2018-10-07T15:06:40.102Z,928.37
2018-10-07T15:08:10.975Z,928.46
2018-10-07T15:11:14.133Z,928.30
2018-10-07T15:14:17.296Z,928.01
2018-10-07T15:17:20.457Z,927.92
2018-10-07T15:18:52.039Z,927.95
2018-10-07T15:20:23.917Z,927.93
2018-10-07T15:21:55.396Z,927.75
2018-10-07T15:23:26.774Z,927.59
2018-10-07T15:24:58.555Z,927.61
2018-10-07T15:28:01.512Z,927.51
2018-10-07T15:31:04.871Z,927.46
2018-10-07T15:34:08.451Z,927.39
2018-10-07T15:35:39.638Z,927.33
2018-10-07T15:38:42.557Z,927.33
2018-10-07T15:40:14.233Z,927.36
2018-10-07T15:43:17.289Z,927.33
2018-10-07T15:44:48.865Z,927.32
2018-10-07T15:46:20.693Z,927.31
2018-10-07T15:47:52.021Z,927.30
2018-10-07T15:49:23.594Z,927.33
2018-10-07T15:53:59.053Z,927.15
2018-10-07T15:55:30.100Z,927.13
2018-10-07T15:57:01.481Z,927.06
2018-10-07T15:58:33.050Z,927.09
2018-10-07T16:00:05.028Z,927.08
2018-10-07T16:01:36.203Z,927.06
2018-10-07T16:04:39.883Z,927.04
2018-10-07T16:06:11.560Z,927.00
2018-10-07T16:07:42.811Z,927.03
2018-10-07T16:09:14.084Z,927.00
2018-10-07T16:10:45.661Z,926.98
2018-10-07T16:12:17.337Z,926.97
2018-10-07T16:13:48.813Z,927.04
2018-10-07T16:15:20.388Z,926.96
2018-10-07T16:18:23.984Z,926.86
2018-10-07T16:19:56.251Z,926.82
2018-10-07T16:24:30.154Z,926.67
2018-10-07T16:26:01.730Z,926.73
2018-10-07T16:27:32.995Z,926.67
2018-10-07T16:29:05.099Z,926.67
2018-10-07T16:30:36.147Z,926.63
2018-10-07T16:32:07.806Z,926.60
2018-10-07T16:33:39.883Z,926.56
2018-10-07T16:35:10.873Z,926.53
2018-10-07T16:38:14.424Z,926.48
2018-10-07T16:39:45.597Z,926.44
2018-10-07T16:41:17.172Z,926.39
2018-10-07T16:42:48.746Z,926.34
2018-10-07T16:44:20.322Z,926.43
2018-10-07T16:45:51.896Z,926.38
2018-10-07T16:47:23.673Z,926.36
2018-10-07T16:48:55.574Z,926.37
2018-10-07T16:51:58.721Z,926.45
2018-10-07T16:56:32.918Z,926.31
2018-10-07T16:58:04.595Z,926.27
2018-10-07T16:59:36.068Z,926.24
2018-10-07T17:01:07.644Z,926.17
2018-10-07T17:02:39.218Z,926.17
2018-10-07T17:04:10.871Z,926.18
2018-10-07T17:05:42.369Z,926.17
2018-10-07T17:07:13.943Z,926.09
2018-10-07T17:08:46.047Z,926.14
2018-10-07T17:10:17.197Z,926.15
2018-10-07T17:11:48.677Z,926.07
2018-10-07T17:13:20.343Z,926.05
2018-10-07T17:17:55.374Z,926.09
2018-10-07T17:19:26.538Z,926.02
2018-10-07T17:22:30.420Z,926.04
2018-10-07T17:24:01.767Z,926.03
2018-10-07T17:25:32.834Z,925.99
2018-10-07T17:27:05.014Z,925.97
2018-10-07T17:28:36.182Z,925.97
2018-10-07T17:31:39.128Z,925.96
2018-10-07T17:33:10.701Z,925.94
2018-10-07T17:34:42.277Z,926.00
2018-10-07T17:37:45.522Z,925.96
2018-10-07T17:40:48.597Z,925.82
2018-10-07T17:42:20.139Z,925.82
2018-10-07T17:43:51.915Z,925.87
2018-10-07T17:45:23.285Z,925.85
2018-10-07T17:46:54.857Z,925.82
2018-10-07T17:48:26.606Z,925.86
2018-10-07T17:49:58.004Z,925.83
2018-10-07T17:51:29.575Z,925.76
2018-10-07T17:53:01.350Z,925.77
2018-10-07T17:54:32.720Z,925.79
2018-10-07T17:56:04.396Z,925.80
2018-10-07T17:57:35.867Z,925.87
2018-10-07T17:59:07.644Z,925.81
2018-10-07T18:00:39.008Z,925.74
2018-10-07T18:03:42.154Z,925.76
2018-10-07T18:05:13.930Z,925.75
2018-10-07T18:06:45.298Z,925.75
2018-10-07T18:08:16.870Z,925.72
2018-10-07T18:09:48.445Z,925.65
2018-10-07T18:11:20.016Z,925.68
2018-10-07T18:12:51.790Z,925.62
2018-10-07T18:15:55.137Z,925.60
2018-10-07T18:18:57.879Z,925.58
2018-10-07T18:20:29.451Z,925.54
2018-10-07T18:22:01.027Z,925.59
2018-10-07T18:23:32.595Z,925.60
2018-10-07T18:25:04.167Z,925.58
2018-10-07T18:26:35.941Z,925.53
2018-10-07T18:28:07.314Z,925.54
2018-10-07T18:32:42.030Z,925.53
2018-10-07T18:34:13.817Z,925.51
2018-10-07T18:35:45.172Z,925.54
2018-10-07T18:37:16.745Z,925.57
2018-10-07T18:38:48.318Z,925.52
2018-10-07T18:40:19.891Z,925.50
2018-10-07T18:41:51.465Z,925.45
2018-10-07T18:43:23.035Z,925.50
2018-10-07T18:44:54.609Z,925.42
2018-10-07T18:46:26.180Z,925.41
2018-10-07T18:49:29.326Z,925.37
2018-10-07T18:52:32.775Z,925.35
2018-10-07T18:54:04.247Z,925.38
2018-10-07T18:55:36.123Z,925.36
2018-10-07T18:57:07.495Z,925.37
2018-10-07T18:58:39.069Z,925.39
2018-10-07T19:00:10.540Z,925.38
2018-10-07T19:03:13.483Z,925.31
2018-10-07T19:04:45.357Z,925.35
2018-10-07T19:06:16.630Z,925.31
2018-10-07T19:07:48.405Z,925.30
2018-10-07T19:09:19.776Z,925.25
2018-10-07T19:12:23.022Z,925.33
2018-10-07T19:13:54.495Z,925.28
2018-10-07T19:15:26.068Z,925.29
2018-10-07T19:16:57.645Z,925.32
2018-10-07T19:18:29.515Z,925.33
2018-10-07T19:20:00.789Z,925.36
2018-10-07T19:21:32.360Z,925.31
2018-10-07T19:23:04.438Z,925.32
2018-10-07T19:24:35.504Z,925.37
2018-10-07T19:30:42.829Z,925.38
2018-10-07T19:32:13.368Z,925.41
2018-10-07T19:33:45.143Z,925.41
2018-10-07T19:36:48.437Z,925.41
2018-10-07T19:38:19.966Z,925.38
2018-10-07T19:39:51.232Z,925.37
2018-10-07T19:41:22.804Z,925.40
2018-10-07T19:42:54.377Z,925.42
2018-10-07T19:44:26.477Z,925.40
2018-10-07T19:45:57.523Z,925.41
2018-10-07T19:47:29.096Z,925.43
2018-10-07T19:49:00.869Z,925.43
2018-10-07T19:50:32.244Z,925.44
2018-10-07T19:53:36.347Z,925.48
2018-10-07T19:56:38.533Z,925.41
2018-10-07T19:58:10.107Z,925.43
2018-10-07T19:59:41.705Z,925.47
2018-10-07T20:01:13.255Z,925.48
2018-10-07T20:02:45.128Z,925.45
2018-10-07T20:04:16.396Z,925.48
2018-10-07T20:05:48.171Z,925.51
2018-10-07T20:07:19.543Z,925.57
2018-10-07T20:08:51.314Z,925.58
2018-10-07T20:10:22.686Z,925.60
2018-10-07T20:11:54.763Z,925.65
2018-10-07T20:13:26.063Z,925.68
2018-10-07T20:16:29.281Z,925.71
2018-10-07T20:19:32.158Z,925.74
2018-10-07T20:21:03.693Z,925.69
2018-10-07T20:22:35.264Z,925.72
2018-10-07T20:24:06.840Z,925.64
2018-10-07T20:25:38.409Z,925.76
2018-10-07T20:28:41.652Z,925.74
2018-10-07T20:30:13.125Z,925.71
2018-10-07T20:31:44.698Z,925.69
2018-10-07T20:33:16.268Z,925.70
2018-10-07T20:34:47.840Z,925.76
2018-10-07T20:36:19.412Z,925.74
2018-10-07T20:37:51.489Z,925.79
2018-10-07T20:39:22.559Z,925.75
2018-10-07T20:40:54.236Z,925.73
2018-10-07T20:42:25.697Z,925.72
2018-10-07T20:43:57.269Z,925.74
2018-10-07T20:45:28.840Z,925.77
2018-10-07T20:47:00.512Z,925.74
2018-10-07T20:48:32.025Z,925.76
2018-10-07T20:50:03.554Z,925.77
2018-10-07T20:51:35.127Z,925.78
2018-10-07T20:53:06.999Z,925.85
2018-10-07T20:54:38.268Z,925.88
2018-10-07T20:56:09.840Z,925.85
2018-10-07T20:59:12.982Z,925.90
2018-10-07T21:00:44.553Z,925.86
2018-10-07T21:02:16.125Z,925.85
2018-10-07T21:05:19.368Z,925.85
2018-10-07T21:06:50.840Z,925.78
2018-10-07T21:08:22.409Z,925.80
2018-10-07T21:11:25.551Z,925.77
2018-10-07T21:12:57.122Z,925.81
2018-10-07T21:14:28.701Z,925.78
2018-10-07T21:16:00.267Z,925.80
2018-10-07T21:17:31.934Z,925.80
2018-10-07T21:19:03.711Z,925.83
2018-10-07T21:20:34.974Z,925.83
2018-10-07T21:22:06.545Z,925.90
2018-10-07T21:23:38.317Z,925.89
2018-10-07T21:25:09.687Z,925.94
2018-10-07T21:26:41.259Z,925.90
2018-10-07T21:28:12.829Z,925.91
2018-10-07T21:29:44.454Z,925.91
2018-10-07T21:31:15.968Z,925.89
2018-10-07T21:32:48.049Z,925.93
2018-10-07T21:34:19.113Z,925.90
2018-10-07T21:35:50.680Z,925.95
2018-10-07T21:37:22.314Z,925.97
2018-10-07T21:38:53.822Z,925.96
2018-10-07T21:40:25.410Z,925.97
2018-10-07T21:41:57.109Z,926.03
2018-10-07T21:43:28.532Z,926.05
2018-10-07T21:45:00.105Z,926.07
2018-10-07T21:46:31.729Z,926.04